Time;durP1;ratioP1;P1;durP2;ratioP2;P2;SDS_P1;SDS_P2;PMS_P1;PMS_P2;Temp;Humidity;BMP_temperature;BMP_pressure;BME280_temperature;BME280_humidity;BME280_pressure;Samples;Min_cycle;Max_cycle;Signal;HPM_P1;HPM_P2
2021/07/19 10:32:49;;;;;;;3.92;1.73;;;25.00;99.90;;;;;;5003309;23;20245;-77
2021/07/19 10:35:17;;;;;;;4.13;1.60;;;24.40;99.90;;;;;;4995065;28;20210;-77
2021/07/19 10:37:51;;;;;;;2.67;1.60;;;24.30;99.90;;;;;;4995926;28;20210;-78
2021/07/19 10:40:24;;;;;;;2.38;1.58;;;24.30;99.90;;;;;;4995679;28;20297;-78
2021/07/19 10:42:52;;;;;;;5.47;1.80;;;24.60;99.90;;;;;;4995286;28;20305;-77
2021/07/19 10:45:19;;;;;;;2.35;1.67;;;24.90;99.90;;;;;;4995728;28;20207;-79
2021/07/19 10:47:52;;;;;;;3.85;2.28;;;24.70;99.90;;;;;;4996314;28;20207;-79
2021/07/19 10:50:21;;;;;;;2.30;1.58;;;24.60;99.90;;;;;;4994775;28;20234;-81
2021/07/19 10:52:49;;;;;;;3.33;1.80;;;24.40;99.90;;;;;;4993373;28;20202;-79
2021/07/19 10:55:27;;;;;;;2.75;1.58;;;24.60;99.90;;;;;;4993880;28;20224;-80
2021/07/19 10:58:03;;;;;;;3.28;2.15;;;24.90;99.90;;;;;;4993792;28;20232;-80
2021/07/19 11:00:36;;;;;;;3.72;1.70;;;24.80;99.90;;;;;;4993716;28;20220;-78
2021/07/19 11:03:06;;;;;;;3.05;1.50;;;24.70;99.90;;;;;;4993753;28;20202;-79
2021/07/19 11:05:38;;;;;;;2.67;1.65;;;24.80;99.90;;;;;;4993834;28;20214;-82
2021/07/19 11:08:05;;;;;;;2.30;1.60;;;24.90;99.90;;;;;;4993757;28;20229;-81
2021/07/19 11:10:45;;;;;;;3.83;1.60;;;24.80;99.90;;;;;;4993465;28;20245;-80
2021/07/19 11:13:12;;;;;;;2.33;1.52;;;24.90;99.90;;;;;;4993814;28;20216;-79
2021/07/19 11:15:41;;;;;;;3.00;1.60;;;25.10;99.90;;;;;;4993533;28;20217;-80
2021/07/19 11:18:16;;;;;;;2.30;1.60;;;25.20;99.90;;;;;;4993580;28;20566;-80
2021/07/19 11:20:44;;;;;;;2.63;1.73;;;24.70;99.90;;;;;;4993519;28;20210;-78
2021/07/19 11:23:14;;;;;;;3.85;1.80;;;24.50;99.90;;;;;;4993719;28;20297;-79
2021/07/19 11:25:42;;;;;;;3.05;1.73;;;24.50;99.90;;;;;;4993765;28;20217;-80
2021/07/19 11:28:17;;;;;;;3.00;1.98;;;24.50;99.90;;;;;;4993539;28;20245;-81
2021/07/19 12:12:14;;;;;;;2.67;1.83;;;24.90;99.90;;;;;;5013602;22;20237;-75
2021/07/19 12:14:41;;;;;;;3.95;2.00;;;25.20;99.90;;;;;;4996785;28;20202;-78
2021/07/19 12:17:08;;;;;;;3.45;1.90;;;25.20;99.90;;;;;;4996695;28;20230;-78
2021/07/19 12:19:35;;;;;;;4.63;1.70;;;24.90;99.90;;;;;;4996837;28;20206;-78
2021/07/19 12:22:03;;;;;;;3.17;1.98;;;25.00;99.90;;;;;;4996833;28;20210;-78
2021/07/19 12:24:31;;;;;;;3.70;2.15;;;25.00;99.90;;;;;;4996536;28;20280;-77
2021/07/19 12:27:02;;;;;;;3.25;1.75;;;25.20;99.90;;;;;;4996610;28;20207;-78
2021/07/19 12:29:33;;;;;;;2.83;1.90;;;25.20;99.90;;;;;;4996543;28;20280;-76
2021/07/19 12:32:02;;;;;;;3.50;1.95;;;24.90;99.90;;;;;;4992355;28;20202;-75
2021/07/19 12:34:30;;;;;;;3.78;2.05;;;24.80;99.90;;;;;;4995945;28;20222;-75
2021/07/19 12:36:59;;;;;;;3.25;2.00;;;24.70;99.90;;;;;;4978744;28;20221;-74
2021/07/19 12:39:28;;;;;;;3.63;2.17;;;24.80;99.90;;;;;;4996228;28;20214;-75
2021/07/19 12:41:56;;;;;;;3.03;1.95;;;25.00;99.90;;;;;;4995748;28;20207;-74
2021/07/19 12:44:25;;;;;;;2.55;1.80;;;25.10;99.90;;;;;;4996150;28;20684;-79
2021/07/19 12:46:54;;;;;;;3.97;2.05;;;25.00;99.90;;;;;;4995968;28;20206;-76
2021/07/19 12:49:29;;;;;;;2.85;2.13;;;25.30;99.90;;;;;;4996101;28;20241;-76
2021/07/19 12:52:01;;;;;;;3.90;2.40;;;25.70;99.90;;;;;;4995695;28;20210;-74
2021/07/19 12:54:29;;;;;;;5.55;2.30;;;25.90;99.90;;;;;;4996335;28;20245;-74
2021/07/19 12:56:56;;;;;;;4.50;2.13;;;26.00;99.90;;;;;;4995450;28;20213;-76
2021/07/19 12:59:23;;;;;;;3.78;2.10;;;26.20;99.90;;;;;;4996021;28;20268;-74
2021/07/19 13:01:51;;;;;;;5.57;2.08;;;26.30;99.90;;;;;;4995228;28;20211;-79
2021/07/19 13:04:23;;;;;;;3.83;2.00;;;26.30;99.90;;;;;;4995687;28;20217;-79
2021/07/19 13:06:51;;;;;;;4.22;2.55;;;26.10;99.90;;;;;;4995915;28;20210;-78
2021/07/19 13:09:23;;;;;;;4.75;2.42;;;26.10;99.90;;;;;;4995498;28;20234;-79
2021/07/19 13:12:00;;;;;;;4.93;2.53;;;26.20;99.90;;;;;;4995002;28;20297;-79
2021/07/19 13:14:38;;;;;;;4.07;2.30;;;25.90;99.90;;;;;;4995274;28;20210;-79
2021/07/19 13:17:10;;;;;;;4.55;2.25;;;26.00;99.90;;;;;;4997357;28;20210;-93
2021/07/19 13:19:40;;;;;;;4.40;2.45;;;26.30;99.90;;;;;;4981007;28;20289;-78
2021/07/19 13:22:09;;;;;;;4.03;2.30;;;26.50;99.90;;;;;;4995251;28;20202;-79
2021/07/19 13:24:38;;;;;;;3.97;2.53;;;26.70;99.90;;;;;;4996312;28;20210;-79
2021/07/19 13:27:06;;;;;;;3.90;2.28;;;26.80;99.90;;;;;;4994554;28;20203;-78
2021/07/19 13:29:34;;;;;;;3.85;2.25;;;26.80;99.90;;;;;;4995538;28;20751;-82
2021/07/19 13:32:06;;;;;;;4.10;2.53;;;26.80;99.90;;;;;;4995327;28;20238;-81
2021/07/19 13:34:33;;;;;;;4.72;2.85;;;26.60;99.90;;;;;;4995528;28;20218;-79
2021/07/19 13:37:01;;;;;;;3.40;2.28;;;26.50;99.90;;;;;;4995184;28;20214;-83
2021/07/19 13:39:29;;;;;;;4.63;2.53;;;25.80;99.90;;;;;;4994924;28;20605;-83
2021/07/19 13:42:03;;;;;;;4.68;2.67;;;25.80;99.90;;;;;;4994730;28;20211;-83
2021/07/19 13:44:32;;;;;;;3.22;2.35;;;26.00;99.90;;;;;;4995301;28;20206;-84
2021/07/19 13:46:58;;;;;;;4.22;2.38;;;26.10;99.90;;;;;;4994881;28;20210;-81
2021/07/19 13:49:25;;;;;;;4.63;2.80;;;26.30;99.90;;;;;;4995143;28;20257;-83
2021/07/19 13:51:52;;;;;;;4.35;2.60;;;26.30;99.90;;;;;;4994646;28;20207;-82
2021/07/19 13:54:20;;;;;;;3.53;2.40;;;26.20;99.90;;;;;;4994634;28;20214;-82
2021/07/19 13:56:47;;;;;;;3.67;2.47;;;26.20;99.90;;;;;;4994636;28;20203;-82
2021/07/19 13:59:14;;;;;;;4.35;2.42;;;26.30;99.90;;;;;;4995095;28;20206;-81
2021/07/19 14:01:42;;;;;;;4.72;2.72;;;26.50;99.90;;;;;;4994903;28;20219;-81
2021/07/19 14:04:09;;;;;;;4.95;2.72;;;26.40;99.90;;;;;;4994733;28;20210;-79
2021/07/19 14:06:36;;;;;;;4.25;2.33;;;26.30;99.90;;;;;;4994750;28;20269;-80
2021/07/19 14:09:05;;;;;;;4.47;2.53;;;26.00;99.90;;;;;;4994955;28;20222;-82
2021/07/19 14:11:33;;;;;;;5.50;2.67;;;25.80;99.90;;;;;;4993999;28;20577;-83
2021/07/19 14:14:01;;;;;;;3.72;2.08;;;25.90;99.90;;;;;;4994644;28;20206;-80
2021/07/19 14:16:27;;;;;;;4.47;2.65;;;26.00;99.90;;;;;;4994263;28;20202;-79
2021/07/19 14:18:55;;;;;;;4.43;2.63;;;26.40;99.90;;;;;;4994522;28;20700;-80
2021/07/19 14:21:22;;;;;;;5.53;2.53;;;26.40;99.90;;;;;;4994336;28;20221;-80
2021/07/19 14:23:48;;;;;;;4.20;2.65;;;26.30;99.90;;;;;;4994040;28;20696;-81
2021/07/19 14:26:15;;;;;;;4.15;2.53;;;26.50;99.90;;;;;;4994456;28;20203;-81
2021/07/19 14:28:45;;;;;;;3.40;2.35;;;26.40;99.90;;;;;;4994658;28;20223;-80
2021/07/19 14:31:11;;;;;;;3.63;2.47;;;26.40;99.90;;;;;;4994174;28;20234;-80
2021/07/19 14:33:38;;;;;;;5.38;2.47;;;26.50;99.90;;;;;;4994006;28;20206;-82
2021/07/19 14:36:06;;;;;;;3.95;2.40;;;26.60;99.90;;;;;;4993946;28;20206;-81
2021/07/19 14:38:33;;;;;;;4.13;2.30;;;26.70;99.90;;;;;;4994156;28;20225;-82
2021/07/19 14:41:00;;;;;;;4.93;2.33;;;26.80;99.90;;;;;;4993501;28;20217;-80
2021/07/19 14:43:28;;;;;;;5.15;2.53;;;26.70;99.90;;;;;;4993823;28;20210;-80
2021/07/19 14:45:56;;;;;;;5.45;2.90;;;26.20;99.90;;;;;;4994038;28;20210;-81
2021/07/19 14:48:22;;;;;;;4.95;2.55;;;26.10;99.90;;;;;;4993440;28;20229;-80
2021/07/19 14:50:49;;;;;;;4.70;2.70;;;25.90;99.90;;;;;;4993447;28;20240;-79
2021/07/19 14:53:16;;;;;;;4.00;2.30;;;25.60;99.90;;;;;;4993806;28;20213;-81
2021/07/19 14:55:44;;;;;;;4.00;2.63;;;25.70;99.90;;;;;;4993966;28;20213;-81
2021/07/19 14:58:11;;;;;;;4.88;2.63;;;25.60;99.90;;;;;;4993362;28;20237;-80
2021/07/19 15:00:38;;;;;;;4.18;2.55;;;25.90;99.90;;;;;;4993568;28;20206;-79
2021/07/19 15:03:06;;;;;;;5.28;2.40;;;26.20;99.90;;;;;;4993547;28;20280;-79
2021/07/19 15:05:32;;;;;;;4.45;2.55;;;26.50;99.90;;;;;;4993714;28;20209;-79
2021/07/19 15:07:59;;;;;;;4.20;2.72;;;26.70;99.90;;;;;;4993517;28;20227;-80
2021/07/19 15:10:26;;;;;;;4.20;2.47;;;26.20;99.90;;;;;;4993417;28;20250;-78
2021/07/19 15:12:53;;;;;;;6.53;2.95;;;26.10;99.90;;;;;;4993648;28;20217;-80
2021/07/19 15:15:20;;;;;;;6.15;2.70;;;26.00;99.90;;;;;;4993523;28;20228;-79
2021/07/19 15:17:47;;;;;;;3.83;2.58;;;25.80;99.90;;;;;;4993234;28;20226;-81
2021/07/19 15:20:16;;;;;;;5.45;2.35;;;25.60;99.90;;;;;;4990712;28;20210;-74
2021/07/19 15:22:43;;;;;;;6.70;2.53;;;25.40;99.90;;;;;;4972455;28;20213;-76
2021/07/19 15:25:12;;;;;;;4.20;2.58;;;25.30;99.90;;;;;;4979573;28;20209;-76
2021/07/19 15:27:40;;;;;;;5.95;3.00;;;25.20;99.90;;;;;;4991486;28;20233;-82
2021/07/19 15:30:10;;;;;;;4.93;2.72;;;25.00;99.90;;;;;;4991518;28;20226;-78
2021/07/19 15:32:37;;;;;;;4.75;2.50;;;25.10;99.90;;;;;;4992406;28;20202;-74
2021/07/19 15:35:04;;;;;;;5.68;2.78;;;25.10;99.90;;;;;;4991756;28;20210;-77
2021/07/19 15:37:32;;;;;;;5.07;2.78;;;25.20;99.90;;;;;;4992422;28;20330;-77
2021/07/19 15:39:59;;;;;;;5.65;2.75;;;25.40;99.90;;;;;;4995280;28;20233;-76
2021/07/19 15:42:28;;;;;;;4.63;2.72;;;25.50;99.90;;;;;;4995849;28;20206;-77
2021/07/19 15:44:56;;;;;;;4.32;2.63;;;25.80;99.90;;;;;;4996761;28;20214;-75
2021/07/19 15:47:23;;;;;;;5.47;2.60;;;25.80;99.90;;;;;;4996884;28;20701;-76
2021/07/19 15:49:50;;;;;;;4.43;2.55;;;25.80;99.90;;;;;;4997327;28;20210;-76
2021/07/19 15:52:17;;;;;;;4.60;2.50;;;25.60;99.90;;;;;;4996925;28;20253;-76
2021/07/19 15:54:45;;;;;;;4.47;2.40;;;25.60;99.90;;;;;;4996470;28;20217;-75
2021/07/19 15:57:12;;;;;;;5.38;2.70;;;25.50;99.90;;;;;;4996666;28;20226;-75
2021/07/19 15:59:39;;;;;;;5.70;2.53;;;25.50;99.90;;;;;;4996993;28;20218;-75
2021/07/19 16:02:05;;;;;;;5.47;2.63;;;25.50;99.90;;;;;;4997245;28;20217;-75
2021/07/19 16:04:32;;;;;;;6.18;2.60;;;25.60;99.90;;;;;;4996713;28;20210;-75
2021/07/19 16:06:59;;;;;;;6.50;2.70;;;25.70;99.90;;;;;;4996602;28;20207;-75
2021/07/19 16:09:26;;;;;;;4.38;2.70;;;25.80;99.90;;;;;;4997025;28;20211;-75
2021/07/19 16:11:54;;;;;;;5.72;2.72;;;25.80;99.90;;;;;;4996179;28;20238;-75
2021/07/19 16:14:21;;;;;;;4.88;2.92;;;25.80;99.90;;;;;;4996902;28;20215;-75
2021/07/19 16:16:48;;;;;;;3.85;2.47;;;25.50;99.90;;;;;;4997069;28;20210;-76
2021/07/19 16:19:15;;;;;;;3.95;2.50;;;25.20;99.90;;;;;;4996825;28;20197;-75
2021/07/19 16:21:42;;;;;;;4.88;2.75;;;25.20;99.90;;;;;;4996223;28;20217;-78
2021/07/19 16:24:12;;;;;;;4.70;2.88;;;25.00;99.90;;;;;;4996005;28;20557;-76
2021/07/19 16:26:39;;;;;;;5.15;2.83;;;24.80;99.90;;;;;;4991053;28;20728;-76
2021/07/19 16:29:08;;;;;;;6.28;2.85;;;24.60;99.90;;;;;;4996428;28;20226;-76
2021/07/19 16:31:35;;;;;;;5.03;2.95;;;24.40;99.90;;;;;;4996138;28;20234;-75
2021/07/19 16:34:02;;;;;;;6.30;3.33;;;24.30;99.90;;;;;;4996268;28;20221;-76
2021/07/19 16:36:30;;;;;;;9.73;2.85;;;24.30;99.90;;;;;;4995798;28;20574;-76
2021/07/19 16:38:56;;;;;;;7.05;3.10;;;24.30;99.90;;;;;;4995769;28;20287;-76
2021/07/19 16:41:25;;;;;;;5.32;2.42;;;24.20;99.90;;;;;;4995974;28;20217;-76
2021/07/19 16:43:53;;;;;;;4.90;2.40;;;24.20;99.90;;;;;;4996515;28;20268;-76
2021/07/19 16:46:21;;;;;;;4.30;2.78;;;24.30;99.90;;;;;;4995886;28;20214;-76
2021/07/19 16:48:48;;;;;;;4.32;2.83;;;24.30;99.90;;;;;;4995788;28;20317;-76
2021/07/19 16:51:15;;;;;;;4.35;2.70;;;24.40;99.90;;;;;;4994533;28;20230;-76
2021/07/19 16:53:42;;;;;;;5.38;2.92;;;24.60;99.90;;;;;;4996068;28;20207;-77
2021/07/19 16:56:10;;;;;;;5.22;2.28;;;24.50;99.90;;;;;;4995566;28;20214;-76
2021/07/19 16:58:37;;;;;;;7.78;2.88;;;24.40;99.90;;;;;;4996256;28;20636;-75
2021/07/19 17:01:05;;;;;;;6.70;2.83;;;24.30;99.90;;;;;;4996792;28;20210;-77
2021/07/19 17:03:33;;;;;;;5.85;2.60;;;24.50;99.90;;;;;;4995808;28;20230;-76
2021/07/19 17:06:00;;;;;;;4.35;2.50;;;24.60;99.90;;;;;;4995655;28;20214;-76
2021/07/19 17:08:27;;;;;;;5.07;2.65;;;24.70;99.90;;;;;;4995731;28;20226;-76
2021/07/19 17:10:54;;;;;;;4.72;2.40;;;24.60;99.90;;;;;;4995849;28;20237;-77
2021/07/19 17:13:21;;;;;;;4.43;2.60;;;24.60;99.90;;;;;;4995435;28;20225;-78
2021/07/19 17:15:48;;;;;;;3.67;2.30;;;24.60;99.90;;;;;;4995564;28;20215;-77
2021/07/19 17:18:15;;;;;;;4.03;2.10;;;24.50;99.90;;;;;;4995402;28;20234;-76
2021/07/19 17:20:43;;;;;;;6.20;2.95;;;24.50;99.90;;;;;;4995186;28;20203;-75
2021/07/19 17:23:10;;;;;;;5.90;2.67;;;24.40;99.90;;;;;;4995678;28;20217;-75
2021/07/19 17:25:38;;;;;;;7.13;3.50;;;24.30;99.90;;;;;;4990331;28;20213;-75
2021/07/19 17:28:08;;;;;;;6.03;2.88;;;24.10;99.90;;;;;;4994919;28;20233;-77
2021/07/19 17:30:37;;;;;;;4.15;2.60;;;24.10;99.90;;;;;;4995132;28;20231;-76
2021/07/19 17:33:08;;;;;;;5.40;3.00;;;24.00;99.90;;;;;;4994931;28;20202;-76
2021/07/19 17:35:36;;;;;;;4.63;2.90;;;24.00;99.90;;;;;;4994921;28;20297;-77
2021/07/19 17:38:07;;;;;;;4.47;2.88;;;24.10;99.90;;;;;;4995119;28;20234;-76
2021/07/19 17:40:35;;;;;;;5.65;2.97;;;24.20;99.90;;;;;;4995105;28;20210;-76
2021/07/19 17:43:03;;;;;;;5.53;2.65;;;24.20;99.90;;;;;;4995015;28;20206;-76
2021/07/19 17:45:30;;;;;;;5.47;3.15;;;24.10;99.90;;;;;;4994521;28;20680;-76
2021/07/19 17:47:57;;;;;;;5.20;2.63;;;24.00;99.90;;;;;;4995040;28;20249;-76
2021/07/19 17:50:26;;;;;;;4.55;2.85;;;23.90;99.90;;;;;;4994984;28;20214;-76
2021/07/19 17:52:55;;;;;;;4.45;2.88;;;23.90;99.90;;;;;;4995276;28;20557;-76
2021/07/19 17:55:25;;;;;;;5.90;2.75;;;24.00;99.90;;;;;;4994361;28;20657;-77
2021/07/19 17:57:53;;;;;;;6.32;2.70;;;24.00;99.90;;;;;;4994415;28;20226;-76
2021/07/19 18:00:20;;;;;;;5.18;2.88;;;23.80;99.90;;;;;;4994895;28;20218;-77
2021/07/19 18:02:47;;;;;;;5.43;3.00;;;23.80;99.90;;;;;;4994694;28;20572;-77
2021/07/19 18:05:14;;;;;;;4.15;2.70;;;23.90;99.90;;;;;;4994498;28;20213;-77
2021/07/19 18:07:41;;;;;;;5.22;2.97;;;24.00;99.90;;;;;;4995274;28;20238;-77
2021/07/19 18:10:09;;;;;;;4.70;2.65;;;24.20;99.90;;;;;;4994441;28;20214;-77
2021/07/19 18:12:37;;;;;;;5.93;2.90;;;24.10;99.90;;;;;;4993974;28;20720;-77
2021/07/19 18:15:05;;;;;;;5.22;2.95;;;24.00;99.90;;;;;;4993839;28;20206;-77
2021/07/19 18:17:32;;;;;;;5.78;3.00;;;23.80;99.90;;;;;;4994289;28;20696;-76
2021/07/19 18:19:59;;;;;;;5.20;2.70;;;23.90;99.90;;;;;;4994590;28;20293;-75
2021/07/19 18:22:34;;;;;;;5.45;2.67;;;23.80;99.90;;;;;;4994272;28;20211;-78
2021/07/19 18:25:05;;;;;;;6.35;3.28;;;23.80;99.90;;;;;;4993936;28;20245;-76
2021/07/19 18:30:37;;;;;;;4.05;2.78;;;23.70;99.90;;;;;;4973740;28;20218;-78
2021/07/19 18:33:06;;;;;;;5.55;2.78;;;23.50;99.90;;;;;;4993809;28;20202;-76
2021/07/19 18:35:33;;;;;;;3.92;2.50;;;23.60;99.90;;;;;;4994319;28;20301;-76
2021/07/19 18:38:00;;;;;;;6.72;2.80;;;23.70;99.90;;;;;;4994134;28;20233;-76
2021/07/19 18:40:27;;;;;;;6.32;3.20;;;23.50;99.90;;;;;;4994375;28;20221;-77
2021/07/19 18:42:54;;;;;;;5.75;3.05;;;23.50;99.90;;;;;;4993634;28;20214;-76
2021/07/19 18:45:23;;;;;;;5.10;2.80;;;23.50;99.90;;;;;;4993841;28;20217;-77
2021/07/19 18:47:50;;;;;;;5.25;3.08;;;23.40;99.90;;;;;;4993553;28;20320;-76
2021/07/19 18:50:18;;;;;;;5.60;3.30;;;23.40;99.90;;;;;;4993700;28;20262;-75
2021/07/19 18:52:46;;;;;;;5.90;2.83;;;23.20;99.90;;;;;;4993859;28;20238;-76
2021/07/19 18:55:15;;;;;;;5.38;3.10;;;23.00;99.90;;;;;;4994125;28;20265;-76
2021/07/19 18:57:42;;;;;;;5.35;2.90;;;22.90;99.90;;;;;;4993308;28;20248;-76
2021/07/19 19:00:11;;;;;;;5.72;2.88;;;22.90;99.90;;;;;;4994133;28;20221;-76
2021/07/19 19:02:39;;;;;;;6.97;3.25;;;22.80;99.90;;;;;;4993816;28;20229;-75
2021/07/19 19:05:08;;;;;;;6.20;3.00;;;22.90;99.90;;;;;;4993677;28;20661;-78
2021/07/19 19:07:35;;;;;;;5.60;3.25;;;22.90;99.90;;;;;;4993346;28;20230;-75
2021/07/19 19:10:03;;;;;;;6.65;3.70;;;22.90;99.90;;;;;;4993342;28;20665;-75
2021/07/19 19:12:30;;;;;;;5.00;3.03;;;22.90;99.90;;;;;;4992881;28;20245;-75
2021/07/19 19:14:57;;;;;;;5.35;3.13;;;22.90;99.90;;;;;;4993080;28;20206;-76
2021/07/19 19:17:24;;;;;;;5.35;3.17;;;22.70;99.90;;;;;;4993057;28;20735;-76
2021/07/19 19:19:52;;;;;;;6.15;3.55;;;22.50;99.90;;;;;;4993739;28;20206;-76
2021/07/19 19:22:20;;;;;;;5.03;2.92;;;22.60;99.90;;;;;;4993419;28;20202;-76
2021/07/19 19:24:47;;;;;;;4.88;3.00;;;22.70;99.90;;;;;;4993363;28;20206;-76
2021/07/19 19:27:14;;;;;;;5.75;2.50;;;22.70;99.90;;;;;;4987839;28;21036;-76
2021/07/19 19:29:42;;;;;;;6.15;3.47;;;22.60;99.90;;;;;;4993161;28;20215;-76
2021/07/19 19:32:09;;;;;;;4.28;2.88;;;22.70;99.90;;;;;;4993119;28;20242;-75
2021/07/19 19:34:36;;;;;;;6.88;3.30;;;22.80;99.90;;;;;;4992707;28;20665;-76
2021/07/19 19:37:04;;;;;;;4.35;2.97;;;22.80;99.90;;;;;;4993185;28;20211;-75
2021/07/19 19:39:35;;;;;;;8.05;3.28;;;22.70;99.90;;;;;;4993378;28;20576;-76
2021/07/19 19:42:02;;;;;;;4.28;2.75;;;22.60;99.90;;;;;;4993223;28;20206;-76
2021/07/19 19:44:29;;;;;;;5.45;3.47;;;22.60;99.90;;;;;;4993045;28;20210;-76
2021/07/19 19:46:56;;;;;;;4.65;2.50;;;22.60;99.90;;;;;;4993239;28;20565;-76
2021/07/19 19:49:22;;;;;;;5.38;3.08;;;22.60;99.90;;;;;;4993029;28;20217;-76
2021/07/19 19:51:49;;;;;;;7.03;3.38;;;22.50;99.90;;;;;;4993367;28;20238;-76
2021/07/19 19:54:20;;;;;;;6.57;2.80;;;22.40;99.90;;;;;;4992973;28;20215;-76
2021/07/19 19:56:47;;;;;;;5.30;3.47;;;22.30;99.90;;;;;;4992535;28;20226;-76
2021/07/19 19:59:14;;;;;;;5.55;3.10;;;22.20;99.90;;;;;;4993062;28;20222;-76
2021/07/19 20:01:40;;;;;;;3.97;2.47;;;22.20;99.90;;;;;;4993085;28;20210;-76
2021/07/19 20:04:07;;;;;;;4.50;3.00;;;22.10;99.90;;;;;;4993207;28;20218;-76
2021/07/19 20:06:34;;;;;;;6.57;3.30;;;22.00;99.90;;;;;;4993218;28;20210;-76
2021/07/19 20:09:01;;;;;;;7.25;3.20;;;22.00;99.90;;;;;;4993299;28;20588;-76
2021/07/19 20:11:29;;;;;;;7.25;3.72;;;21.90;99.90;;;;;;4992630;28;20589;-74
2021/07/19 20:13:56;;;;;;;5.25;3.33;;;21.80;99.90;;;;;;4992842;28;20206;-76
2021/07/19 20:16:24;;;;;;;5.72;2.90;;;21.80;99.90;;;;;;4992668;28;20658;-77
2021/07/19 20:18:50;;;;;;;5.82;3.30;;;21.70;99.90;;;;;;4992748;28;20662;-75
2021/07/19 20:21:17;;;;;;;5.05;2.80;;;21.80;99.90;;;;;;4990476;28;20206;-75
2021/07/19 20:23:45;;;;;;;5.75;3.35;;;21.70;99.90;;;;;;4989912;28;20217;-77
2021/07/19 20:26:12;;;;;;;7.13;3.15;;;21.70;99.90;;;;;;4994906;28;20216;-76
2021/07/19 20:28:40;;;;;;;9.13;3.35;;;21.60;99.90;;;;;;4991394;28;20257;-77
2021/07/19 20:31:07;;;;;;;7.80;3.50;;;21.60;99.90;;;;;;4996083;28;20221;-77
2021/07/19 20:33:35;;;;;;;5.70;2.92;;;21.60;99.90;;;;;;4995665;28;20307;-82
2021/07/19 20:36:02;;;;;;;5.15;3.15;;;21.40;99.90;;;;;;4996156;28;20214;-80
2021/07/19 20:38:29;;;;;;;4.85;3.03;;;21.30;99.90;;;;;;4995630;28;20228;-78
2021/07/19 20:40:57;;;;;;;5.75;2.97;;;21.30;99.90;;;;;;4995735;28;20207;-80
2021/07/19 20:43:26;;;;;;;7.82;3.40;;;21.20;99.90;;;;;;4995516;28;20221;-81
2021/07/19 20:45:55;;;;;;;8.32;3.70;;;21.20;99.90;;;;;;4995768;28;20208;-77
2021/07/19 20:48:22;;;;;;;5.03;3.20;;;21.20;99.90;;;;;;4995921;28;20230;-80
2021/07/19 20:50:50;;;;;;;4.78;2.88;;;21.10;99.90;;;;;;4995574;28;20210;-79
2021/07/19 20:53:17;;;;;;;5.60;3.60;;;21.00;99.90;;;;;;4996168;28;20294;-81
2021/07/19 20:55:44;;;;;;;7.18;4.50;;;20.90;99.90;;;;;;4996262;28;20233;-81
2021/07/19 20:58:14;;;;;;;4.78;2.75;;;20.90;99.90;;;;;;4995457;28;20231;-80
2021/07/19 21:00:41;;;;;;;6.60;3.50;;;20.80;99.90;;;;;;4995998;28;20833;-84
2021/07/19 21:03:10;;;;;;;5.18;3.00;;;20.70;99.90;;;;;;4995512;28;20210;-81
2021/07/19 21:05:37;;;;;;;6.82;3.15;;;20.60;99.90;;;;;;4995750;28;20207;-81
2021/07/19 21:08:04;;;;;;;6.82;3.10;;;20.50;99.90;;;;;;4995756;28;20229;-81
2021/07/19 21:10:31;;;;;;;5.28;2.90;;;20.50;99.90;;;;;;4995858;28;20221;-81
2021/07/19 21:12:57;;;;;;;5.30;3.05;;;20.40;99.90;;;;;;4995589;28;20234;-80
2021/07/19 21:15:24;;;;;;;5.63;3.00;;;20.40;99.90;;;;;;4995686;28;20641;-80
2021/07/19 21:17:53;;;;;;;7.47;3.22;;;20.40;99.90;;;;;;4996049;28;20237;-80
2021/07/19 21:20:22;;;;;;;6.10;3.03;;;20.40;99.90;;;;;;4996880;28;20209;-79
2021/07/19 21:22:49;;;;;;;4.78;2.85;;;20.30;99.90;;;;;;4996701;28;20203;-81
2021/07/19 21:25:17;;;;;;;5.70;3.17;;;20.30;99.90;;;;;;4996079;28;20739;-79
2021/07/19 21:27:45;;;;;;;6.32;3.00;;;20.10;99.90;;;;;;4992860;28;20329;-80
2021/07/19 21:30:14;;;;;;;6.68;3.45;;;20.10;99.90;;;;;;4989583;28;20646;-79
2021/07/19 21:32:42;;;;;;;4.50;3.08;;;20.10;99.90;;;;;;4976747;28;20242;-80
2021/07/19 21:35:11;;;;;;;5.45;3.40;;;20.20;99.90;;;;;;4990126;28;20207;-82
2021/07/19 21:37:40;;;;;;;6.13;2.85;;;20.20;99.90;;;;;;4995118;28;20226;-81
2021/07/19 21:40:08;;;;;;;6.05;2.92;;;20.20;99.90;;;;;;4996493;28;20211;-82
2021/07/19 21:42:36;;;;;;;7.65;3.40;;;20.10;99.90;;;;;;4996034;28;20206;-80
2021/07/19 21:45:07;;;;;;;7.05;3.38;;;20.10;99.90;;;;;;4996104;28;20584;-81
2021/07/19 21:47:35;;;;;;;7.05;3.20;;;20.00;99.90;;;;;;4995850;28;20225;-80
2021/07/19 21:50:02;;;;;;;6.75;2.83;;;20.00;99.90;;;;;;4995442;28;20218;-81
